Time;durP1;ratioP1;P1;durP2;ratioP2;P2;SDS_P1;SDS_P2;PMS_P1;PMS_P2;Temp;Humidity;BMP_temperature;BMP_pressure;BME280_temperature;BME280_humidity;BME280_pressure;Samples;Min_cycle;Max_cycle;Signal;HPM_P1;HPM_P2
2024/01/30 00:01:56;;;;;;;26.42;16.13;;;;;;;;;;4972904;28;20042;-71
2024/01/30 00:04:22;;;;;;;27.88;16.98;;;;;;;;;;4970215;28;20057;-71
2024/01/30 00:06:48;;;;;;;21.95;15.65;;;;;;;;;;4977108;28;20050;-71
2024/01/30 00:09:15;;;;;;;24.33;17.80;;;;;;;;;;4982467;28;20809;-71
2024/01/30 00:11:41;;;;;;;24.67;16.05;;;;;;;;;;4977446;28;20063;-72
2024/01/30 00:14:07;;;;;;;24.13;16.73;;;;;;;;;;4979063;28;20053;-72
2024/01/30 00:16:33;;;;;;;24.23;15.93;;;;;;;;;;4974019;28;20050;-71
2024/01/30 00:18:59;;;;;;;26.38;16.17;;;;;;;;;;4977982;28;20046;-72
2024/01/30 00:21:25;;;;;;;27.95;16.05;;;7.60;99.90;;;;;;4974784;28;20043;-71
2024/01/30 00:23:51;;;;;;;22.30;15.48;;;;;;;;;;4972661;28;20096;-72
2024/01/30 00:26:17;;;;;;;24.25;17.42;;;;;;;;;;4981856;28;20121;-72
2024/01/30 00:28:43;;;;;;;23.17;15.30;;;;;;;;;;4980419;28;20706;-70
2024/01/30 00:31:12;;;;;;;23.90;16.27;;;;;;;;;;4979177;28;20054;-71
2024/01/30 00:33:41;;;;;;;29.00;16.48;;;;;;;;;;4981351;28;20555;-71
2024/01/30 00:36:08;;;;;;;22.77;16.23;;;;;;;;;;4976346;28;20058;-71
2024/01/30 00:38:34;;;;;;;30.75;17.70;;;;;;;;;;4973850;28;20489;-71
2024/01/30 00:41:01;;;;;;;26.05;16.02;;;;;;;;;;4973902;28;20043;-71
2024/01/30 00:43:27;;;;;;;27.75;17.48;;;;;;;;;;4978357;28;20080;-71
2024/01/30 00:45:54;;;;;;;26.05;17.15;;;;;;;;;;4980851;28;20488;-71
2024/01/30 00:48:20;;;;;;;26.92;17.08;;;;;;;;;;4975546;28;20054;-71
2024/01/30 00:50:46;;;;;;;27.17;16.60;;;;;;;;;;4972217;28;20042;-71
2024/01/30 00:53:12;;;;;;;26.77;16.38;;;;;;;;;;4974589;28;20054;-71
2024/01/30 00:55:38;;;;;;;28.40;17.63;;;;;;;;;;4982139;28;20042;-71
2024/01/30 00:58:04;;;;;;;26.95;18.23;;;;;;;;;;4979298;28;20046;-71
2024/01/30 01:00:31;;;;;;;26.75;16.70;;;;;;;;;;4978954;28;20405;-71
2024/01/30 01:02:58;;;;;;;26.98;17.83;;;;;;;;;;4973241;28;20050;-71
2024/01/30 01:05:24;;;;;;;29.25;18.70;;;;;;;;;;4974234;28;20042;-71
2024/01/30 01:07:50;;;;;;;26.85;17.25;;;;;;;;;;4978365;28;20061;-71
2024/01/30 01:10:17;;;;;;;26.83;18.02;;;;;;;;;;4961704;28;20475;-71
2024/01/30 01:12:43;;;;;;;25.88;18.13;;;;;;;;;;4981239;28;20050;-71
2024/01/30 01:15:10;;;;;;;28.77;17.23;;;;;;;;;;4976501;28;20133;-71
2024/01/30 01:17:36;;;;;;;27.77;18.40;;;7.10;99.90;;;;;;4979665;28;20152;-71
2024/01/30 01:20:03;;;;;;;27.77;18.10;;;;;;;;;;4977768;28;20484;-72
2024/01/30 01:22:29;;;;;;;25.05;16.30;;;;;;;;;;4975042;28;20133;-71
2024/01/30 01:24:55;;;;;;;28.63;17.10;;;;;;;;;;4975347;28;20133;-71
2024/01/30 01:27:21;;;;;;;25.05;17.45;;;;;;;;;;4976757;28;20042;-71
2024/01/30 01:29:47;;;;;;;28.10;17.70;;;;;;;;;;4980086;28;20046;-71
2024/01/30 01:32:13;;;;;;;26.58;16.23;;;;;;;;;;4974889;28;20083;-71
2024/01/30 01:34:39;;;;;;;25.00;17.27;;;;;;;;;;4971299;28;20050;-72
2024/01/30 01:37:05;;;;;;;27.27;17.50;;;;;;;;;;4953358;28;20157;-71
2024/01/30 01:39:31;;;;;;;26.77;16.92;;;;;;;;;;4980620;28;20042;-72
2024/01/30 01:41:57;;;;;;;25.23;16.70;;;;;;;;;;4982154;28;20070;-72
2024/01/30 01:44:23;;;;;;;25.52;16.63;;;;;;;;;;4978257;28;20050;-71
2024/01/30 01:46:49;;;;;;;27.80;16.88;;;;;;;;;;4983539;28;20137;-72
2024/01/30 01:49:15;;;;;;;26.52;17.60;;;;;;;;;;4973536;28;20497;-72
2024/01/30 01:51:43;;;;;;;30.85;17.02;;;;;;;;;;4982127;28;20054;-72
2024/01/30 01:54:09;;;;;;;27.83;17.10;;;;;;;;;;4978256;28;20464;-71
2024/01/30 01:56:37;;;;;;;29.65;17.33;;;;;;;;;;4977882;28;20129;-71
2024/01/30 01:59:08;;;;;;;28.17;17.75;;;;;;;;;;4971827;28;20046;-72
2024/01/30 02:01:34;;;;;;;21.95;13.95;;;;;;;;;;4972096;28;20079;-71
2024/01/30 02:04:00;;;;;;;27.45;16.23;;;;;;;;;;4975519;28;20046;-71
2024/01/30 02:06:27;;;;;;;30.20;18.65;;;7.20;99.90;;;;;;4977460;28;20046;-71
2024/01/30 02:08:53;;;;;;;24.40;15.32;;;;;;;;;;4970820;28;20046;-71
2024/01/30 02:11:20;;;;;;;28.70;17.88;;;;;;;;;;4980576;28;20046;-72
2024/01/30 02:13:46;;;;;;;25.30;17.48;;;;;;;;;;4974883;28;20050;-71
2024/01/30 02:16:12;;;;;;;26.45;17.13;;;7.00;99.90;;;;;;4978944;28;20166;-71
2024/01/30 02:18:43;;;;;;;25.10;17.27;;;;;;;;;;4964054;28;20516;-71
2024/01/30 02:21:09;;;;;;;30.42;19.00;;;;;;;;;;4969765;28;20568;-71
2024/01/30 02:23:35;;;;;;;22.88;15.95;;;;;;;;;;4977198;28;20133;-71
2024/01/30 02:26:01;;;;;;;25.70;16.45;;;;;;;;;;4977368;28;20125;-70
2024/01/30 02:28:27;;;;;;;19.00;12.88;;;;;;;;;;4971175;28;20082;-71
2024/01/30 02:30:53;;;;;;;22.05;15.32;;;;;;;;;;4971653;28;20126;-71
2024/01/30 02:33:19;;;;;;;24.45;14.95;;;;;;;;;;4969782;28;20057;-72
2024/01/30 02:35:45;;;;;;;26.30;16.13;;;;;;;;;;4973939;28;20112;-72
2024/01/30 02:38:11;;;;;;;21.92;16.08;;;;;;;;;;4980416;28;20057;-71
2024/01/30 02:40:37;;;;;;;25.00;16.95;;;;;;;;;;4976430;28;20061;-71
2024/01/30 02:43:03;;;;;;;26.30;16.33;;;;;;;;;;4978504;28;20707;-71
2024/01/30 02:45:29;;;;;;;25.98;17.38;;;;;;;;;;4974509;28;20089;-72
2024/01/30 02:47:55;;;;;;;27.75;16.42;;;;;;;;;;4968462;28;20420;-72
2024/01/30 02:50:22;;;;;;;24.58;15.40;;;;;;;;;;4972690;28;20171;-72
2024/01/30 02:52:48;;;;;;;24.13;16.50;;;;;;;;;;4970475;28;20051;-71
2024/01/30 02:55:13;;;;;;;26.50;16.67;;;;;;;;;;4979490;28;20444;-71
2024/01/30 02:57:40;;;;;;;24.70;16.95;;;;;;;;;;4979563;28;20090;-71
2024/01/30 03:00:07;;;;;;;26.73;17.52;;;;;;;;;;4974260;28;20088;-71
2024/01/30 03:02:33;;;;;;;29.85;16.77;;;7.00;99.90;;;;;;4979720;28;20049;-71
2024/01/30 03:05:00;;;;;;;23.98;14.20;;;;;;;;;;4974703;28;20042;-72
2024/01/30 03:07:26;;;;;;;25.02;16.75;;;;;;;;;;4975542;28;20053;-71
2024/01/30 03:09:52;;;;;;;23.67;15.88;;;;;;;;;;4972031;28;20101;-71
2024/01/30 03:12:18;;;;;;;22.58;16.00;;;6.90;99.90;;;;;;4966220;28;20409;-72
2024/01/30 03:14:44;;;;;;;32.08;17.15;;;;;;;;;;4972728;28;20042;-71
2024/01/30 03:17:10;;;;;;;25.38;16.90;;;;;;;;;;4976295;28;20038;-71
2024/01/30 03:19:36;;;;;;;25.45;16.67;;;;;;;;;;4976518;28;20042;-71
2024/01/30 03:22:02;;;;;;;25.98;16.50;;;7.10;99.90;;;;;;4975611;28;20114;-72
2024/01/30 03:24:28;;;;;;;20.65;14.50;;;;;;;;;;4972933;28;20733;-71
2024/01/30 03:26:53;;;;;;;24.60;16.75;;;7.20;99.90;;;;;;4971244;28;20042;-71
2024/01/30 03:29:19;;;;;;;26.42;16.23;;;;;;;;;;4980855;28;20045;-72
2024/01/30 03:31:45;;;;;;;23.17;14.18;;;;;;;;;;4977482;28;20058;-71
2024/01/30 03:34:11;;;;;;;24.15;13.63;;;;;;;;;;4983054;28;20104;-72
2024/01/30 03:36:37;;;;;;;25.13;14.35;;;;;;;;;;4979400;28;20050;-72
2024/01/30 03:39:04;;;;;;;24.25;15.60;;;;;;;;;;4976997;28;20050;-71
2024/01/30 03:41:30;;;;;;;22.38;15.05;;;;;;;;;;4974653;28;20493;-71
2024/01/30 03:43:56;;;;;;;25.67;13.68;;;;;;;;;;4981553;28;20061;-71
2024/01/30 03:46:22;;;;;;;22.50;13.85;;;;;;;;;;4962931;28;20076;-71
2024/01/30 03:48:48;;;;;;;23.55;15.20;;;;;;;;;;4976737;28;20904;-71
2024/01/30 03:51:15;;;;;;;24.75;14.50;;;;;;;;;;4977693;28;20378;-72
2024/01/30 03:53:45;;;;;;;20.88;14.75;;;;;;;;;;4978273;28;20054;-72
2024/01/30 03:56:13;;;;;;;21.80;13.65;;;;;;;;;;4975609;28;20505;-71
2024/01/30 03:58:39;;;;;;;23.05;15.15;;;;;;;;;;4980372;28;20704;-71
2024/01/30 04:01:05;;;;;;;22.52;15.20;;;;;;;;;;4981249;28;20543;-71
2024/01/30 04:03:31;;;;;;;20.92;13.93;;;;;;;;;;4977237;28;20583;-72
2024/01/30 04:05:57;;;;;;;24.75;14.38;;;;;;;;;;4979729;28;20125;-72
2024/01/30 04:08:23;;;;;;;23.35;14.52;;;7.40;99.90;;;;;;4984126;28;20049;-71
2024/01/30 04:10:49;;;;;;;23.17;14.90;;;;;;;;;;4975405;28;20050;-71
2024/01/30 04:13:15;;;;;;;20.33;13.68;;;;;;;;;;4975610;28;20572;-72
2024/01/30 04:15:41;;;;;;;21.50;14.25;;;;;;;;;;4973579;28;20058;-71
2024/01/30 04:18:07;;;;;;;23.20;14.70;;;;;;;;;;4979806;28;20767;-72
2024/01/30 04:20:33;;;;;;;20.48;14.60;;;;;;;;;;4981288;28;20038;-71
2024/01/30 04:22:59;;;;;;;24.02;14.98;;;;;;;;;;4982792;28;20050;-71
2024/01/30 04:25:25;;;;;;;20.70;13.57;;;;;;;;;;4976961;28;20568;-72
2024/01/30 04:27:51;;;;;;;21.83;14.85;;;;;;;;;;4977440;28;20496;-72
2024/01/30 04:30:17;;;;;;;22.95;14.85;;;;;;;;;;4973589;28;20057;-72
2024/01/30 04:32:44;;;;;;;24.27;14.77;;;;;;;;;;4976564;28;20105;-72
2024/01/30 04:35:10;;;;;;;23.13;13.82;;;;;;;;;;4982857;28;20054;-72
2024/01/30 04:37:36;;;;;;;25.02;13.75;;;;;;;;;;4979502;28;20825;-72
2024/01/30 04:40:02;;;;;;;21.60;13.45;;;;;;;;;;4983076;28;20050;-72
2024/01/30 04:42:28;;;;;;;19.48;12.00;;;7.70;99.90;;;;;;4965431;28;20108;-72
2024/01/30 04:44:54;;;;;;;19.75;13.23;;;;;;;;;;4983422;28;20898;-72
2024/01/30 04:47:20;;;;;;;19.65;12.32;;;;;;;;;;4979025;28;20065;-71
2024/01/30 04:49:46;;;;;;;20.25;13.32;;;;;;;;;;4989696;28;20046;-72
2024/01/30 04:52:12;;;;;;;17.42;11.38;;;;;;;;;;4985884;28;20085;-72
2024/01/30 04:54:38;;;;;;;22.55;13.70;;;;;;;;;;4977080;28;20656;-71
2024/01/30 04:57:05;;;;;;;20.52;13.18;;;7.80;99.90;;;;;;4984907;28;20053;-72
2024/01/30 04:59:31;;;;;;;20.15;12.90;;;;;;;;;;4974295;28;20042;-72
2024/01/30 05:01:57;;;;;;;18.38;13.38;;;;;;;;;;4973155;28;20054;-72
2024/01/30 05:04:23;;;;;;;19.17;13.40;;;;;;;;;;4978569;28;20049;-71
2024/01/30 05:06:49;;;;;;;19.50;13.52;;;7.60;99.90;;;;;;4979410;28;20447;-72
2024/01/30 05:09:15;;;;;;;20.30;14.00;;;;;;;;;;4982908;28;20161;-72
2024/01/30 05:11:41;;;;;;;20.48;13.75;;;;;;;;;;4973946;28;20485;-72
2024/01/30 05:14:08;;;;;;;20.48;12.73;;;7.80;99.90;;;;;;4984397;28;20405;-71
2024/01/30 05:16:34;;;;;;;20.85;13.80;;;;;;;;;;4972602;28;20061;-72
2024/01/30 05:19:00;;;;;;;20.77;11.60;;;;;;;;;;4977859;28;20146;-72
2024/01/30 05:21:26;;;;;;;20.60;11.05;;;;;;;;;;4980662;28;20137;-71
2024/01/30 05:23:52;;;;;;;19.35;12.80;;;;;;;;;;4978486;28;20069;-72
2024/01/30 05:26:18;;;;;;;19.77;12.55;;;;;;;;;;4980336;28;20050;-72
2024/01/30 05:28:44;;;;;;;18.30;11.85;;;8.00;99.90;;;;;;4979220;28;20043;-72
2024/01/30 05:31:10;;;;;;;16.77;11.07;;;;;;;;;;4978297;28;20818;-72
2024/01/30 05:33:36;;;;;;;24.17;14.02;;;7.90;99.90;;;;;;4976546;28;20119;-71
2024/01/30 05:36:02;;;;;;;18.23;12.15;;;;;;;;;;4982132;28;20118;-72
2024/01/30 05:38:28;;;;;;;19.35;12.05;;;;;;;;;;4975693;28;20050;-72
2024/01/30 05:40:54;;;;;;;17.08;12.45;;;;;;;;;;4985558;28;20038;-72
2024/01/30 05:43:20;;;;;;;21.65;12.55;;;;;;;;;;4980218;28;20090;-72
2024/01/30 05:45:46;;;;;;;17.48;12.30;;;;;;;;;;4979415;28;20134;-72
2024/01/30 05:48:12;;;;;;;20.98;12.57;;;;;;;;;;4980909;28;20038;-71
2024/01/30 05:50:38;;;;;;;17.05;12.52;;;;;;;;;;4982505;28;20054;-72
2024/01/30 05:53:04;;;;;;;17.45;12.43;;;;;;;;;;4978370;28;20047;-72
2024/01/30 05:55:30;;;;;;;18.50;11.88;;;8.00;99.90;;;;;;4977850;28;20053;-72
2024/01/30 05:57:56;;;;;;;21.70;12.80;;;;;;;;;;4992067;28;20102;-72
2024/01/30 06:00:21;;;;;;;21.27;12.00;;;7.90;99.90;;;;;;4977414;28;20057;-72
2024/01/30 06:02:47;;;;;;;17.13;12.10;;;;;;;;;;4977194;28;20488;-71
2024/01/30 06:05:13;;;;;;;19.02;12.10;;;;;;;;;;4973602;28;20046;-72
2024/01/30 06:07:39;;;;;;;21.48;11.85;;;;;;;;;;4973986;28;20054;-72
2024/01/30 06:10:06;;;;;;;19.13;12.48;;;;;;;;;;4981341;28;20050;-72
2024/01/30 06:12:32;;;;;;;17.30;11.15;;;;;;;;;;4977331;28;20054;-72
2024/01/30 06:14:59;;;;;;;16.88;11.80;;;;;;;;;;4976942;28;20073;-72
2024/01/30 06:17:25;;;;;;;18.98;11.55;;;;;;;;;;4977005;28;20050;-72
2024/01/30 06:19:50;;;;;;;18.33;11.85;;;;;;;;;;4979835;28;20683;-72
2024/01/30 06:22:17;;;;;;;13.80;9.63;;;;;;;;;;4965346;28;20042;-72
2024/01/30 06:24:44;;;;;;;15.05;11.30;;;;;;;;;;4978573;28;20807;-72
2024/01/30 06:27:11;;;;;;;18.42;10.60;;;;;;;;;;4973230;28;20855;-72
2024/01/30 06:29:37;;;;;;;15.93;10.43;;;;;;;;;;4973517;28;20061;-72
2024/01/30 06:32:03;;;;;;;15.00;10.05;;;;;;;;;;4975310;28;20051;-72
2024/01/30 06:34:29;;;;;;;20.50;11.07;;;;;;;;;;4973936;28;20795;-72
2024/01/30 06:36:55;;;;;;;17.30;10.77;;;;;;;;;;4968959;28;20062;-72
2024/01/30 06:39:21;;;;;;;15.60;10.88;;;;;;;;;;4973131;28;20049;-72
2024/01/30 06:41:47;;;;;;;18.02;11.63;;;;;;;;;;4979226;28;20066;-71
2024/01/30 06:44:13;;;;;;;19.65;10.98;;;;;;;;;;4971848;28;20077;-72
2024/01/30 06:46:39;;;;;;;16.85;10.20;;;;;;;;;;4976747;28;20050;-72
2024/01/30 06:49:05;;;;;;;17.27;10.60;;;;;;;;;;4974177;28;20095;-71
2024/01/30 06:51:31;;;;;;;15.13;10.80;;;;;;;;;;4977448;28;20038;-72
2024/01/30 06:53:57;;;;;;;17.58;11.35;;;;;;;;;;4971397;28;20873;-72
2024/01/30 06:56:24;;;;;;;24.00;11.63;;;;;;;;;;4973399;28;20112;-71
2024/01/30 06:58:50;;;;;;;17.08;10.50;;;8.50;99.90;;;;;;4986266;28;20149;-71
2024/01/30 07:01:16;;;;;;;17.05;10.38;;;;;;;;;;4971760;28;20065;-72
2024/01/30 07:03:42;;;;;;;17.02;10.60;;;;;;;;;;4979327;28;20125;-71
2024/01/30 07:06:08;;;;;;;23.38;11.95;;;;;;;;;;4977775;28;20042;-72
2024/01/30 07:08:34;;;;;;;18.48;12.48;;;;;;;;;;4977855;28;20045;-72
2024/01/30 07:11:00;;;;;;;17.67;10.43;;;;;;;;;;4979734;28;20503;-72
2024/01/30 07:13:26;;;;;;;15.68;10.85;;;;;;;;;;4978286;28;20039;-72
2024/01/30 07:15:52;;;;;;;16.08;10.13;;;;;;;;;;4974748;28;20042;-72
2024/01/30 07:18:18;;;;;;;15.95;9.57;;;;;;;;;;4977709;28;20055;-71
2024/01/30 07:20:49;;;;;;;18.55;10.65;;;;;;;;;;4965708;28;20134;-71
2024/01/30 07:23:17;;;;;;;14.48;10.00;;;;;;;;;;4979217;28;20670;-73
2024/01/30 07:25:48;;;;;;;15.18;9.38;;;8.70;99.90;;;;;;4976304;28;20054;-69
2024/01/30 07:28:16;;;;;;;19.65;11.15;;;;;;;;;;4995624;28;20141;-69
2024/01/30 07:30:42;;;;;;;14.00;10.00;;;;;;;;;;4974719;28;20101;-69
2024/01/30 07:33:09;;;;;;;18.30;10.90;;;8.80;99.90;;;;;;4980046;28;20046;-69
2024/01/30 07:35:35;;;;;;;15.48;9.80;;;8.80;99.90;;;;;;4974722;28;20138;-69
2024/01/30 07:38:01;;;;;;;18.70;10.95;;;;;;;;;;4971885;28;20542;-69
2024/01/30 07:40:28;;;;;;;16.95;10.27;;;;;;;;;;4978416;28;20053;-70
2024/01/30 07:42:54;;;;;;;14.90;8.85;;;9.00;99.90;;;;;;4979211;28;20054;-69
2024/01/30 07:45:22;;;;;;;18.42;9.52;;;;;;;;;;4981362;28;20050;-69
2024/01/30 07:47:49;;;;;;;14.45;9.10;;;8.80;99.90;;;;;;4972463;28;20049;-70
2024/01/30 07:50:15;;;;;;;16.50;10.15;;;;;;;;;;4967462;28;20055;-69
2024/01/30 07:52:42;;;;;;;16.77;10.32;;;9.00;99.90;;;;;;4968902;28;20042;-69
2024/01/30 07:55:08;;;;;;;15.65;11.05;;;;;;;;;;4974151;28;20054;-69
2024/01/30 07:57:34;;;;;;;17.05;9.30;;;;;;;;;;4975403;28;20527;-69
2024/01/30 08:00:01;;;;;;;13.98;9.40;;;9.00;99.90;;;;;;4975218;28;20049;-69
2024/01/30 08:02:27;;;;;;;15.52;9.20;;;;;;;;;;4976119;28;20039;-69
2024/01/30 08:04:53;;;;;;;16.13;9.98;;;;;;;;;;4973751;28;20700;-69
2024/01/30 08:07:19;;;;;;;18.13;10.88;;;;;;;;;;4977206;28;20045;-69
2024/01/30 08:09:45;;;;;;;15.80;9.90;;;;;;;;;;4980994;28;20053;-71
2024/01/30 08:12:12;;;;;;;15.88;10.65;;;;;;;;;;4975024;28;20149;-71
2024/01/30 08:14:39;;;;;;;15.73;9.60;;;;;;;;;;4969075;28;20062;-70
2024/01/30 08:17:05;;;;;;;15.15;9.32;;;;;;;;;;4979037;28;20099;-69
2024/01/30 08:19:30;;;;;;;18.05;9.82;;;9.00;99.90;;;;;;4983280;28;20038;-69
2024/01/30 08:21:56;;;;;;;14.20;9.13;;;;;;;;;;4980839;28;21252;-69
2024/01/30 08:24:22;;;;;;;17.30;10.30;;;;;;;;;;4982979;28;20050;-69
2024/01/30 08:26:48;;;;;;;16.02;9.93;;;;;;;;;;4976890;28;20772;-70
2024/01/30 08:29:14;;;;;;;14.90;9.85;;;;;;;;;;4984368;28;20054;-69
2024/01/30 08:31:40;;;;;;;16.30;10.57;;;;;;;;;;4978920;28;21322;-70
2024/01/30 08:34:06;;;;;;;17.20;9.57;;;9.20;99.90;;;;;;4965086;28;20054;-70
2024/01/30 08:36:32;;;;;;;13.02;8.90;;;;;;;;;;4984528;28;20053;-70
2024/01/30 08:38:58;;;;;;;14.50;9.55;;;;;;;;;;4983624;28;20563;-70
2024/01/30 08:41:24;;;;;;;19.33;11.02;;;;;;;;;;4981688;28;20038;-70
2024/01/30 08:43:50;;;;;;;18.42;10.02;;;9.30;99.90;;;;;;4979687;28;20050;-71
2024/01/30 08:46:19;;;;;;;14.15;9.27;;;9.10;99.90;;;;;;4983207;28;20448;-70
2024/01/30 08:48:45;;;;;;;16.00;10.40;;;;;;;;;;4979083;28;20039;-70
2024/01/30 08:51:11;;;;;;;14.55;9.52;;;;;;;;;;4994833;28;20043;-69
2024/01/30 08:53:37;;;;;;;18.92;10.07;;;;;;;;;;4978428;28;20128;-69
2024/01/30 08:56:03;;;;;;;14.02;8.90;;;9.50;99.90;;;;;;4976750;28;20135;-68
2024/01/30 08:58:30;;;;;;;18.83;9.90;;;;;;;;;;4976262;28;20455;-69
2024/01/30 09:00:56;;;;;;;14.45;10.05;;;;;;;;;;4975453;28;20141;-68
2024/01/30 09:03:22;;;;;;;14.50;10.13;;;;;;;;;;4979082;28;20050;-69
2024/01/30 09:05:48;;;;;;;15.38;10.10;;;;;;;;;;4977681;28;20042;-69
2024/01/30 09:08:14;;;;;;;16.20;10.35;;;;;;;;;;4974150;28;20165;-69
2024/01/30 09:10:41;;;;;;;15.50;9.80;;;;;;;;;;4979026;28;20415;-68
2024/01/30 09:13:07;;;;;;;13.73;9.27;;;;;;;;;;4974505;28;20121;-69
2024/01/30 09:15:32;;;;;;;13.48;9.55;;;;;;;;;;4977887;28;20043;-70
2024/01/30 09:17:58;;;;;;;16.35;10.05;;;;;;;;;;4988657;28;20055;-71
2024/01/30 09:20:24;;;;;;;17.55;10.55;;;;;;;;;;4982456;28;20049;-70
2024/01/30 09:22:50;;;;;;;18.30;10.07;;;9.40;99.90;;;;;;4975656;28;20042;-70
2024/01/30 09:25:16;;;;;;;15.35;10.50;;;9.60;99.90;;;;;;4977855;28;20128;-70
2024/01/30 09:27:42;;;;;;;14.82;9.45;;;;;;;;;;4971816;28;20046;-70
2024/01/30 09:30:08;;;;;;;17.10;9.98;;;;;;;;;;4976605;28;20077;-71
2024/01/30 09:32:34;;;;;;;19.45;10.70;;;;;;;;;;4979149;28;20750;-70
2024/01/30 09:35:00;;;;;;;15.60;9.70;;;;;;;;;;4977529;28;20125;-71
2024/01/30 09:37:26;;;;;;;16.13;9.98;;;;;;;;;;4978263;28;20042;-72
2024/01/30 09:39:52;;;;;;;20.08;10.60;;;;;;;;;;4974488;28;20051;-71
2024/01/30 09:42:18;;;;;;;16.30;9.63;;;;;;;;;;4974382;28;20911;-74
2024/01/30 09:44:46;;;;;;;19.40;10.25;;;9.60;99.90;;;;;;4975680;28;20050;-71
2024/01/30 09:47:12;;;;;;;14.98;9.77;;;;;;;;;;4976921;28;20049;-71
2024/01/30 09:49:38;;;;;;;17.48;10.02;;;;;;;;;;4977237;28;20088;-71
2024/01/30 09:52:06;;;;;;;14.48;9.32;;;9.50;99.90;;;;;;4977090;28;20062;-70
2024/01/30 09:54:32;;;;;;;16.55;10.18;;;9.70;99.90;;;;;;4976978;28;20054;-70
2024/01/30 09:56:59;;;;;;;16.15;9.48;;;;;;;;;;4972225;28;20165;-71
2024/01/30 09:59:25;;;;;;;19.23;10.75;;;;;;;;;;4978533;28;21423;-71
2024/01/30 10:01:51;;;;;;;19.60;10.10;;;;;;;;;;4972228;28;20046;-71
2024/01/30 10:04:18;;;;;;;16.77;10.43;;;;;;;;;;4976139;28;20042;-71
2024/01/30 10:06:44;;;;;;;16.13;9.93;;;;;;;;;;4972515;28;20046;-72
2024/01/30 10:09:09;;;;;;;17.92;10.90;;;10.00;99.90;;;;;;4978183;28;20057;-71
2024/01/30 10:11:37;;;;;;;16.98;10.13;;;9.90;99.90;;;;;;4978959;28;20682;-70
2024/01/30 10:14:03;;;;;;;18.42;11.18;;;;;;;;;;4975457;28;20050;-72
2024/01/30 10:16:29;;;;;;;18.77;11.38;;;;;;;;;;4976455;28;20050;-71
2024/01/30 10:18:55;;;;;;;15.10;10.65;;;;;;;;;;4975815;28;20046;-71
2024/01/30 10:21:21;;;;;;;19.00;11.35;;;;;;;;;;4978029;28;20057;-71
2024/01/30 10:23:47;;;;;;;19.23;10.73;;;;;;;;;;4977488;28;20505;-70
2024/01/30 10:26:13;;;;;;;20.50;11.65;;;;;;;;;;4975071;28;20141;-71
2024/01/30 10:28:39;;;;;;;19.92;11.30;;;;;;;;;;4976408;28;20096;-72
2024/01/30 10:31:05;;;;;;;20.50;11.82;;;;;;;;;;4975029;28;20125;-70
2024/01/30 10:33:32;;;;;;;17.33;11.52;;;;;;;;;;4971908;28;20046;-70
2024/01/30 10:36:03;;;;;;;17.85;10.70;;;10.00;99.90;;;;;;4978964;28;20050;-70
2024/01/30 10:38:29;;;;;;;21.60;11.98;;;;;;;;;;4973430;28;20061;-72
2024/01/30 10:40:59;;;;;;;20.10;11.98;;;10.00;99.90;;;;;;4980366;28;20073;-70
2024/01/30 10:43:35;;;;;;;21.77;11.75;;;10.10;99.90;;;;;;4980607;28;20065;-70
2024/01/30 10:46:21;;;;;;;25.58;12.57;;;10.20;99.90;;;;;;4974161;28;20053;-71
2024/01/30 10:48:59;;;;;;;22.45;13.77;;;10.20;99.90;;;;;;4973471;28;20072;-70
2024/01/30 10:51:27;;;;;;;17.52;11.63;;;10.20;99.90;;;;;;4975744;28;20094;-71
2024/01/30 10:53:53;;;;;;;19.42;11.57;;;10.20;99.90;;;;;;4974355;28;20508;-71
2024/01/30 10:56:21;;;;;;;22.90;12.20;;;10.30;99.90;;;;;;4977774;28;20062;-70
2024/01/30 10:58:55;;;;;;;18.25;11.85;;;10.50;99.90;;;;;;4979670;28;20531;-70
2024/01/30 11:01:22;;;;;;;21.55;12.75;;;10.50;99.90;;;;;;4960732;28;20057;-71
2024/01/30 11:03:56;;;;;;;23.48;13.10;;;10.40;99.90;;;;;;4976683;28;20499;-70
2024/01/30 11:06:25;;;;;;;24.25;11.90;;;10.50;99.90;;;;;;4980783;28;20045;-71
2024/01/30 11:09:09;;;;;;;20.42;13.43;;;10.40;99.90;;;;;;4979534;28;20057;-72
2024/01/30 11:11:57;;;;;;;25.92;14.43;;;10.30;99.90;;;;;;4979596;28;20090;-69
2024/01/30 11:14:24;;;;;;;22.10;13.93;;;10.60;99.90;;;;;;4977165;28;20050;-69
2024/01/30 11:16:50;;;;;;;20.83;12.25;;;10.40;99.90;;;;;;4979100;28;20061;-69
2024/01/30 11:19:26;;;;;;;23.52;12.20;;;10.50;99.90;;;;;;4979250;28;20039;-69
2024/01/30 11:21:56;;;;;;;18.70;10.65;;;10.40;99.90;;;;;;4978349;28;20408;-70
2024/01/30 11:24:23;;;;;;;25.42;11.82;;;10.40;99.90;;;;;;4980223;28;20085;-73
2024/01/30 11:26:55;;;;;;;22.85;10.98;;;10.30;99.90;;;;;;4982207;28;20042;-71
2024/01/30 11:29:27;;;;;;;29.27;11.88;;;10.20;99.90;;;;;;4978782;28;20759;-71
2024/01/30 11:31:57;;;;;;;26.85;10.00;;;10.30;99.90;;;;;;4996506;28;20069;-71
2024/01/30 11:34:23;;;;;;;21.27;10.00;;;;;;;;;;4981994;28;20128;-71
2024/01/30 11:37:01;;;;;;;22.02;8.73;;;10.30;99.90;;;;;;4982108;28;20043;-72
2024/01/30 11:39:28;;;;;;;22.58;8.48;;;;;;;;;;4982039;28;20042;-71
2024/01/30 11:41:54;;;;;;;20.58;9.20;;;10.10;99.90;;;;;;4981962;28;20065;-71
2024/01/30 11:44:20;;;;;;;16.80;6.32;;;;;;;;;;4977666;28;20050;-71
2024/01/30 11:46:51;;;;;;;17.83;6.40;;;10.10;99.90;;;;;;4983455;28;20046;-71
2024/01/30 11:49:18;;;;;;;15.63;6.47;;;;;;;;;;4980438;28;20562;-71
2024/01/30 11:51:45;;;;;;;11.88;5.07;;;10.10;99.90;;;;;;4984024;28;20057;-71
2024/01/30 11:54:11;;;;;;;9.95;4.65;;;10.00;99.90;;;;;;4981620;28;20030;-71
2024/01/30 11:56:38;;;;;;;10.20;5.10;;;;;;;;;;4981428;28;20044;-71
2024/01/30 11:59:04;;;;;;;13.35;3.90;;;;;;;;;;4984046;28;20081;-71
2024/01/30 12:01:31;;;;;;;10.05;3.22;;;9.80;99.90;;;;;;4981227;28;20046;-71
2024/01/30 12:03:59;;;;;;;9.07;2.67;;;9.80;99.90;;;;;;4982312;28;20038;-71
2024/01/30 12:06:25;;;;;;;8.10;2.75;;;9.90;99.90;;;;;;4979727;28;20050;-70
2024/01/30 12:09:03;;;;;;;7.03;2.75;;;9.90;99.90;;;;;;4983841;28;20116;-71
2024/01/30 12:11:30;;;;;;;5.20;2.50;;;;;;;;;;4978891;28;20057;-71
2024/01/30 12:13:56;;;;;;;7.40;2.20;;;;;;;;;;4980604;28;20056;-71
2024/01/30 12:16:22;;;;;;;5.57;2.67;;;9.90;99.90;;;;;;4974439;28;20043;-71
2024/01/30 12:18:48;;;;;;;5.97;2.05;;;9.90;99.90;;;;;;4984145;28;20116;-71
2024/01/30 12:21:16;;;;;;;4.47;1.75;;;10.00;99.90;;;;;;4990620;28;20042;-70
2024/01/30 12:23:42;;;;;;;5.07;1.60;;;;;;;;;;4985746;28;20046;-72
2024/01/30 12:26:09;;;;;;;4.82;2.00;;;;;;;;;;4980916;28;20101;-70
2024/01/30 12:28:35;;;;;;;5.05;1.80;;;9.90;99.90;;;;;;4995952;28;20043;-70
2024/01/30 12:31:04;;;;;;;3.85;2.33;;;10.00;99.90;;;;;;4981893;28;20058;-71
2024/01/30 12:33:30;;;;;;;6.07;1.80;;;9.90;99.90;;;;;;4981012;28;20053;-68
2024/01/30 12:36:05;;;;;;;5.05;3.53;;;9.70;99.90;;;;;;4984961;28;20404;-68
2024/01/30 12:38:31;;;;;;;;;;;9.80;99.90;;;;;;4984783;28;20038;-69
2024/01/30 12:40:58;;;;;;;8.25;1.95;;;;;;;;;;4984238;28;20291;-69
2024/01/30 12:43:28;;;;;;;3.65;1.70;;;10.00;99.90;;;;;;4983694;28;20771;-69
2024/01/30 12:45:54;;;;;;;3.75;1.70;;;;;;;;;;4983267;28;20042;-68
2024/01/30 12:48:20;;;;;;;4.95;1.77;;;;;;;;;;4982635;28;20653;-69
2024/01/30 12:50:45;;;;;;;5.95;1.98;;;9.70;99.90;;;;;;4979494;28;20046;-69
2024/01/30 12:53:12;;;;;;;4.63;1.75;;;9.80;99.90;;;;;;4980482;28;20738;-70
2024/01/30 12:55:38;;;;;;;4.15;1.70;;;9.80;99.90;;;;;;4982168;28;20057;-69
2024/01/30 12:58:04;;;;;;;3.95;1.63;;;;;;;;;;4979187;28;20050;-69
2024/01/30 13:00:30;;;;;;;2.35;1.25;;;;;;;;;;4979024;28;20042;-69
2024/01/30 13:02:56;;;;;;;2.83;0.90;;;9.80;99.90;;;;;;4984303;28;20042;-68
2024/01/30 13:05:22;;;;;;;2.10;1.02;;;;;;;;;;4980348;28;20144;-68
2024/01/30 13:07:48;;;;;;;1.95;1.33;;;;;;;;;;4998986;28;20046;-68
2024/01/30 13:10:14;;;;;;;3.70;1.30;;;;;;;;;;4976752;28;20137;-69
2024/01/30 13:12:40;;;;;;;5.10;1.85;;;;;;;;;;4983415;28;20572;-69
2024/01/30 13:15:07;;;;;;;8.55;1.85;;;;;;;;;;4979928;28;20089;-69
2024/01/30 13:17:33;;;;;;;2.13;1.40;;;10.00;99.90;;;;;;4984533;28;20121;-69
2024/01/30 13:19:59;;;;;;;3.30;1.77;;;;;;;;;;4979024;28;20092;-69
2024/01/30 13:22:25;;;;;;;7.05;1.48;;;;;;;;;;4978611;28;20158;-69
2024/01/30 13:24:51;;;;;;;4.75;1.65;;;;;;;;;;4981956;28;20039;-69
2024/01/30 13:27:17;;;;;;;3.63;1.30;;;9.90;99.90;;;;;;4973123;28;20046;-69
2024/01/30 13:29:43;;;;;;;3.42;1.38;;;;;;;;;;4980086;28;20034;-69
2024/01/30 13:32:09;;;;;;;4.32;1.35;;;;;;;;;;4980381;28;20057;-69
2024/01/30 13:34:35;;;;;;;6.00;1.52;;;;;;;;;;4981290;28;20117;-68
2024/01/30 13:37:01;;;;;;;2.60;1.48;;;9.80;99.90;;;;;;4982881;28;20077;-69
2024/01/30 13:39:27;;;;;;;6.28;1.90;;;9.80;99.90;;;;;;4980093;28;20034;-69
2024/01/30 13:41:53;;;;;;;6.25;2.00;;;;;;;;;;4973548;28;20098;-70
2024/01/30 13:44:20;;;;;;;2.22;1.48;;;;;;;;;;4982790;28;20944;-69
2024/01/30 13:46:46;;;;;;;5.07;1.58;;;9.70;99.90;;;;;;4973997;28;20069;-69
2024/01/30 13:49:12;;;;;;;4.97;2.28;;;9.70;99.90;;;;;;4979150;28;20476;-69
2024/01/30 13:51:38;;;;;;;6.78;1.55;;;;;;;;;;4980698;28;20049;-69